Terminal Aerodrome Forecast
Issued by NWS Wichita, KS

Home | Current Version | Previous Version | Text Only | Print | Product List | Glossary Off
Versions: 1 2 3 4 5 6 7 8 9 10 11 12 13 14 15 16 17 18 19 20 21 22 23 24

851
FTUS43 KICT 221722
TAFICT
TAF
KICT 221722Z 2218/2318 11012KT P6SM OVC028
     FM230100 12010KT P6SM OVC020
     FM230500 13011KT P6SM VCSH OVC012
     FM230800 14012KT 5SM -DZ OVC008
     FM231100 15013KT 4SM -DZ BR OVC005
     FM231500 16017G25KT P6SM OVC012=

USA.gov is the U.S. government's official web portal to all federal, state and local government web resources and services.